Terminal Aerodrome Forecast
Issued by NWS

Current Version | Previous Version | Text Only | Print | Product List | Glossary On
Versions: 1 2 3 4 5 6 7 8 9 10 11 12 13 14 15 16 17 18 19 20
000
FTUS46 KMFR 300500
TAFOTH
TAF
KOTH 300537Z 3006/3106 VRB03KT P6SM OVC005
     FM301200 16003KT 3SM -DZ BR OVC003
     FM301600 23006KT 5SM -DZ BR BKN008 OVC015
     FM302100 29010KT P6SM FEW020 BKN035=

USA.gov is the U.S. government's official web portal to all federal, state and local government web resources and services.